Hawaii METAR Reports

 

PHOG - Kahului, Hawaii, USA
Distance from station: WNW 8mi, 13km
Updated: Wed, 22-Jan-2020 6:54pm HST
Few Clouds
Few Clouds
 Wind from SW
Wind: SW 7 mph , 11 km/h
Temperature: 72°F , 22°C
Dew Point: 61°F , 16°C
Humidity: 69%
Barometer: 30.03 inHg , 1016.9 hPa
Clouds: Few Clouds
Visibility: 10 miles , 16 km
Cloud details: Few Clouds 3000 ft
2020/01/23 04:54 PHOG 230454Z 23006KT 10SM FEW030 22/16 A3003 RMK AO2 SLP173 T02220161
PHJH - Lahaina/West Mau, Hawaii, USA
Distance from station: WNW 24mi, 39km
Updated: Wed, 22-Jan-2020 5:45pm HST
NOT Current
Few Clouds
Few Clouds
 Wind from S
Wind: S 10 mph , 17 km/h
Temperature: 77°F , 25°C
Dew Point: 59°F , 15°C
Humidity: 54%
Barometer: 30.02 inHg , 1016.6 hPa
Clouds: Few Clouds
Visibility: 15 miles , 24 km
Cloud details: Few Clouds 5500 ft
2020/01/23 03:45 PHJH 230345Z 19009KT 15SM FEW055 25/15 A3002 RMK LAST
 
PHNY - Lanai City Airpo, Hawaii, USA
Distance from station: W 40mi, 65km
Updated: Wed, 22-Jan-2020 6:56pm HST
Mist, Clear
Mist, Clear
 Wind from S
Wind: S 6 mph , 9 km/h
Temperature: 66°F , 19°C
Dew Point: 63°F , 17°C
Humidity: 88%
Barometer: 30.09 inHg , 1019 hPa
Summary: Mist
Clouds: Clear
Visibility: 1 1/4 miles , 2 km
2020/01/23 04:56 PHNY 230456Z AUTO 17005KT 1 1/4SM BR CLR 19/17 A3009 RMK AO2 SLP176 T01890172 PWINO $
PHMK - Molokai, Hawaii, USA
Distance from station: WNW 55mi, 88km
Updated: Wed, 22-Jan-2020 6:54pm HST
Clear
Clear
 Wind from calm
Wind: Calm
Temperature: 66°F , 19°C
Dew Point: 61°F , 16°C
Humidity: 83%
Barometer: 30.05 inHg , 1017.6 hPa
Clouds: Clear
Visibility: 10 miles , 16 km
2020/01/23 04:54 PHMK 230454Z AUTO 00000KT 10SM CLR 19/16 A3005 RMK AO2 SLP181 T01890156 TSNO
 
PHKO - Kailua/Kona, Hawaii, USA
Distance from station: SSE 79mi, 128km
Updated: Wed, 22-Jan-2020 6:53pm HST
Clear
Clear
 Wind from N
Wind: N 6 mph , 9 km/h
Temperature: 75°F , 24°C
Dew Point: 59°F , 15°C
Humidity: 57%
Barometer: 30.02 inHg , 1016.6 hPa
Clouds: Clear
Visibility: 10 miles , 16 km
2020/01/23 04:53 PHKO 230453Z 35005KT 10SM CLR 24/15 A3002 RMK AO2 SLP165 T02440150
PHSF - Bradshaw Aaf/Haw, Hawaii, USA
Distance from station: SE 90mi, 145km
Updated: Wed, 22-Jan-2020 6:58pm HST
Clear
Clear
 Wind from calm
Wind: Calm
Temperature: 52°F , 11°C
Dew Point: 46°F , 8°C
Humidity: 82%
Barometer: 30.32 inHg , 1026.8 hPa
Clouds: Clear
Visibility: 9 miles , 14 km
2020/01/23 04:58 PHSF 230458Z AUTO 00000KT 9SM CLR 11/08 A3032 RMK AO2 SLP190 T01050081 TSNO $
 
PHNG - Kaneohe Mcas, Hawaii, USA
Distance from station: WNW 102mi, 164km
Updated: Wed, 22-Jan-2020 6:57pm HST
Few Clouds
Few Clouds
 Wind from SSW
Wind: SSW 3 mph , 6 km/h
Temperature: 73°F , 23°C
Dew Point: 63°F , 17°C
Humidity: 69%
Barometer: 30.00 inHg , 1015.9 hPa
Clouds: Few Clouds
Visibility: 10 miles , 16 km
Cloud details: Few Clouds 3000 ft
2020/01/23 04:57 PHNG 230457Z 21003KT 10SM FEW030 23/17 A3000 RMK AO2 SLP153 T02280172 $
PHNL - Honolulu, Hawaii, USA
Distance from station: WNW 108mi, 174km
Updated: Wed, 22-Jan-2020 6:53pm HST
Few Clouds
Few Clouds
 Wind from SSE
Wind: SSE 3 mph , 6 km/h
Temperature: 75°F , 24°C
Dew Point: 63°F , 17°C
Humidity: 65%
Barometer: 30.03 inHg , 1016.9 hPa
Clouds: Few Clouds
Visibility: 10 miles , 16 km
Cloud details: Few Clouds 4000 ft
2020/01/23 04:53 PHNL 230453Z 16003KT 10SM FEW040 24/17 A3003 RMK AO2 SLP167 T02390167
 
PHTO - Hilo, Hawaii, USA
Distance from station: SE 114mi, 183km
Updated: Wed, 22-Jan-2020 6:53pm HST
Clear
Clear
 Wind from SSW
Wind: SSW 3 mph , 6 km/h
Temperature: 72°F , 22°C
Dew Point: 61°F , 16°C
Humidity: 69%
Barometer: 30.04 inHg , 1017.3 hPa
Clouds: Clear
Visibility: 10 miles , 16 km
2020/01/23 04:53 PHTO 230453Z 21003KT 10SM CLR 22/16 A3004 RMK AO2 SLP170 T02220161
PHJR - Kalaeloa, Hawaii, USA
Distance from station: WNW 117mi, 189km
Updated: Wed, 22-Jan-2020 4:53pm HST
NOT Current
Partly Cloudy
Partly Cloudy
 Wind from SSE
Wind: SSE 7 mph , 11 km/h
Temperature: 79°F , 26°C
Dew Point: 63°F , 17°C
Humidity: 58%
Barometer: 30.03 inHg , 1016.9 hPa
Clouds: Partly Cloudy
Visibility: 10 miles , 16 km
Cloud details: Partly Cloudy 4900 ft
2020/01/23 02:53 PHJR 230253Z 16006KT 10SM SCT049 26/17 A3003 RMK AO2 SLP174 T02560172 55004
 
PHHI - Wheeler Afb/Oahu, Hawaii, USA
Distance from station: WNW 120mi, 193km
Updated: Wed, 22-Jan-2020 6:56pm HST
Clear
Clear
 Wind from calm
Wind: Calm
Temperature: 68°F , 20°C
Dew Point: 61°F , 16°C
Humidity: 78%
Barometer: 30.04 inHg , 1017.3 hPa
Clouds: Clear
Visibility: 10 miles , 16 km
2020/01/23 04:56 PHHI 230456Z AUTO 00000KT 10SM CLR 20/16 A3004 RMK AO2 SLP168 T02020160 $
PHLI - Lihue/Kauai Is, Hawaii, USA
Distance from station: WNW 209mi, 336km
Updated: Wed, 22-Jan-2020 6:53pm HST
Clear
Clear
 Wind from SSW
Wind: SSW 6 mph , 9 km/h
Temperature: 72°F , 22°C
Dew Point: 64°F , 18°C
Humidity: 78%
Barometer: 30.03 inHg , 1016.9 hPa
Clouds: Clear
Visibility: 10 miles , 16 km
2020/01/23 04:53 PHLI 230453Z 20005KT 10SM CLR 22/18 A3003 RMK AO2 SLP167 T02170178
 
PHBK - Barking Sands/Ka, Hawaii, USA
Distance from station: WNW 237mi, 382km
Updated: Wed, 22-Jan-2020 6:56pm HST
Clear
Clear
 Wind from SE
Wind: SE 6 mph , 9 km/h
Temperature: 73°F , 23°C
Dew Point: 64°F , 18°C
Humidity: 74%
Barometer: 30.02 inHg , 1016.6 hPa
Clouds: Clear
Visibility: 10 miles , 16 km
2020/01/23 04:56 PHBK 230456Z AUTO 13005KT 10SM CLR 23/18 A3002 RMK AO2 SLP166 T02280183